Terminal Aerodrome Forecast
Issued by NWS Sterling, VA

Current Version | Previous Version | Graphics & Text | Print | Product List | Glossary On
Versions: 1 2 3 4 5 6 7 8 9 10 11 12 13 14 15 16 17 18 19 20 21 22 23
000
FTUS41 KLWX 181120
TAFIAD
TAF
KIAD 181120Z 1812/1918 VRB03KT P6SM SKC
     FM181800 21008KT P6SM FEW250
     FM190000 22004KT P6SM BKN120
     FM190800 28005KT P6SM BKN070
     FM191100 29005KT P6SM SCT060
     FM191400 30009KT P6SM SCT200=

USA.gov is the U.S. government's official web portal to all federal, state and local government web resources and services.